createdAt,value
2018-06-22T03:37:46.263Z,24.3
2018-06-22T03:38:35.848Z,24.3
2018-06-22T03:39:24.645Z,24.3
2018-06-22T03:40:15.374Z,24.3
2018-06-22T03:41:05.458Z,24.3
2018-06-22T03:41:56.339Z,24.3
2018-06-22T03:42:46.161Z,24.3
2018-06-22T03:43:36.466Z,24.3
2018-06-22T03:44:25.633Z,24.3
2018-06-22T03:45:15.993Z,24.3
2018-06-22T03:46:06.678Z,24.3
2018-06-22T03:46:56.168Z,24.3
2018-06-22T03:47:46.495Z,24.3
2018-06-22T03:48:35.789Z,24.3
2018-06-22T03:49:26.416Z,24.3
2018-06-22T03:50:16.432Z,24.3
2018-06-22T03:51:05.922Z,24.3
2018-06-22T03:51:56.565Z,24.3
2018-06-22T03:52:46.846Z,24.3
2018-06-22T03:53:36.941Z,24.3
2018-06-22T03:54:26.427Z,24.3
2018-06-22T03:55:17.320Z,24.3
2018-06-22T03:56:06.822Z,24.3
2018-06-22T03:56:58.712Z,24.3
2018-06-22T03:57:46.735Z,24.3
2018-06-22T03:58:37.361Z,24.3
2018-06-22T03:59:27.613Z,24.3
2018-06-22T04:00:18.005Z,24.3
2018-06-22T04:01:07.494Z,24.4
2018-06-22T04:01:57.345Z,24.3
2018-06-22T04:02:48.214Z,24.3
2018-06-22T04:03:36.339Z,24.3
2018-06-22T04:04:28.010Z,24.4
2018-06-22T04:05:17.259Z,24.4
2018-06-22T04:06:08.171Z,24.4
2018-06-22T04:06:58.201Z,24.4
2018-06-22T04:07:48.879Z,24.4
2018-06-22T04:08:38.423Z,24.3
2018-06-22T04:09:27.667Z,24.4
2018-06-22T04:10:17.713Z,24.4
2018-06-22T04:11:07.517Z,24.4
2018-06-22T04:11:57.645Z,24.4
2018-06-22T04:12:48.041Z,24.4
2018-06-22T04:13:38.726Z,24.4
2018-06-22T04:14:27.571Z,24.4
2018-06-22T04:15:18.900Z,24.4
2018-06-22T04:16:08.158Z,24.4
2018-06-22T04:16:58.038Z,24.4
2018-06-22T04:17:48.205Z,24.4
2018-06-22T04:18:36.723Z,24.4
2018-06-22T04:19:28.987Z,24.4
2018-06-22T04:20:18.060Z,24.4
2018-06-22T04:21:07.982Z,24.4
2018-06-22T04:21:58.895Z,24.4
2018-06-22T04:22:48.413Z,24.4
2018-06-22T04:23:38.150Z,24.4
2018-06-22T04:24:29.149Z,24.4
2018-06-22T04:25:19.662Z,24.4
2018-06-22T04:26:10.057Z,24.4
2018-06-22T04:26:59.485Z,24.4
2018-06-22T04:27:49.770Z,24.4
2018-06-22T04:28:40.406Z,24.4
2018-06-22T04:29:30.009Z,24.4
2018-06-22T04:30:19.482Z,24.4
2018-06-22T04:31:09.863Z,24.4
2018-06-22T04:32:00.661Z,24.4
2018-06-22T04:32:49.613Z,24.4
2018-06-22T04:33:40.562Z,24.4
2018-06-22T04:34:29.790Z,24.4
2018-06-22T04:35:19.059Z,24.4
2018-06-22T04:36:10.783Z,24.4
2018-06-22T04:37:00.247Z,24.4
2018-06-22T04:37:51.206Z,24.4
2018-06-22T04:38:41.925Z,24.4
2018-06-22T04:39:30.976Z,24.4
2018-06-22T04:40:20.522Z,24.4
2018-06-22T04:41:09.844Z,24.4
2018-06-22T04:42:01.173Z,24.4
2018-06-22T04:42:49.823Z,24.4
2018-06-22T04:43:41.040Z,24.4
2018-06-22T04:44:31.116Z,24.4
2018-06-22T04:45:21.124Z,24.4
2018-06-22T04:46:11.277Z,24.4
2018-06-22T04:47:01.035Z,24.4
2018-06-22T04:47:52.249Z,24.4
2018-06-22T04:48:41.200Z,24.4
2018-06-22T04:49:31.467Z,24.4
2018-06-22T04:50:22.047Z,24.4
2018-06-22T04:51:10.913Z,24.4
2018-06-22T04:52:02.140Z,24.4
2018-06-22T04:52:51.107Z,24.4
2018-06-22T04:53:41.604Z,24.4
2018-06-22T04:54:31.980Z,24.4
2018-06-22T04:55:22.540Z,24.4
2018-06-22T04:56:12.892Z,24.4
2018-06-22T04:57:02.013Z,24.4
2018-06-22T04:57:52.377Z,24.4
2018-06-22T04:58:42.422Z,24.4
2018-06-22T04:59:32.500Z,24.4
2018-06-22T05:00:22.165Z,24.4
2018-06-22T05:01:12.735Z,24.4
2018-06-22T05:02:02.715Z,24.4
2018-06-22T05:02:51.785Z,24.4
2018-06-22T05:03:43.616Z,24.4
2018-06-22T05:04:31.923Z,24.4
2018-06-22T05:05:23.382Z,24.4
2018-06-22T05:06:13.045Z,24.4
2018-06-22T05:07:02.687Z,24.4
2018-06-22T05:07:52.371Z,24.4
2018-06-22T05:08:43.522Z,24.4
2018-06-22T05:09:33.615Z,24.4
2018-06-22T05:10:23.162Z,24.4
2018-06-22T05:11:12.669Z,24.4
2018-06-22T05:12:03.242Z,24.4
2018-06-22T05:12:53.350Z,24.4
2018-06-22T05:13:43.612Z,24.4
2018-06-22T05:14:33.162Z,24.5
2018-06-22T05:15:23.287Z,24.4
2018-06-22T05:16:13.605Z,24.4
2018-06-22T05:17:02.558Z,24.4
2018-06-22T05:17:53.461Z,24.4
2018-06-22T05:18:43.752Z,24.5
2018-06-22T05:19:33.357Z,24.4
2018-06-22T05:20:23.427Z,24.5
2018-06-22T05:21:13.135Z,24.4
2018-06-22T05:22:04.289Z,24.5
2018-06-22T05:22:54.752Z,24.5
2018-06-22T05:23:44.138Z,24.5
2018-06-22T05:24:34.517Z,24.4
2018-06-22T05:25:24.442Z,24.5
2018-06-22T05:26:14.650Z,24.5
2018-06-22T05:27:03.829Z,24.5
2018-06-22T05:27:54.290Z,24.5
2018-06-22T05:28:43.830Z,24.4
2018-06-22T05:29:33.735Z,24.5
2018-06-22T05:30:25.116Z,24.5
2018-06-22T05:31:15.042Z,24.5
2018-06-22T05:32:04.765Z,24.5
2018-06-22T05:32:55.091Z,24.5
2018-06-22T05:33:45.196Z,24.5
2018-06-22T05:34:34.655Z,24.5
2018-06-22T05:35:24.777Z,24.5
2018-06-22T05:36:15.254Z,24.5
2018-06-22T05:37:05.242Z,24.5
2018-06-22T05:37:54.449Z,24.5
2018-06-22T05:38:45.316Z,24.5
2018-06-22T05:39:34.877Z,24.5
2018-06-22T05:40:25.462Z,24.5
2018-06-22T05:41:15.496Z,24.5
2018-06-22T05:42:04.731Z,24.5
2018-06-22T05:42:55.965Z,24.5
2018-06-22T05:43:44.874Z,24.5
2018-06-22T05:44:35.254Z,24.5
2018-06-22T05:45:25.827Z,24.5
2018-06-22T05:46:14.521Z,24.5
2018-06-22T05:47:06.509Z,24.5
2018-06-22T05:47:56.301Z,24.5
2018-06-22T05:48:45.534Z,24.5
2018-06-22T05:49:35.408Z,24.5
2018-06-22T05:50:25.933Z,24.5
2018-06-22T05:51:15.865Z,24.5
2018-06-22T05:52:06.075Z,24.5
2018-06-22T05:52:55.537Z,24.5
2018-06-22T05:53:46.239Z,24.5
2018-06-22T05:54:35.771Z,24.5
2018-06-22T05:55:26.381Z,24.5
2018-06-22T05:56:16.955Z,24.5
2018-06-22T05:57:07.063Z,24.5
2018-06-22T05:57:57.031Z,24.5
2018-06-22T05:58:46.861Z,24.5
2018-06-22T05:59:36.415Z,24.5
2018-06-22T06:00:26.450Z,24.5
2018-06-22T06:01:16.733Z,24.5
2018-06-22T06:02:07.243Z,24.5
2018-06-22T06:02:57.705Z,24.5
2018-06-22T06:03:47.538Z,24.6
2018-06-22T06:04:36.496Z,24.5
2018-06-22T06:05:27.650Z,24.5
2018-06-22T06:06:17.679Z,24.6
2018-06-22T06:07:08.036Z,24.5
2018-06-22T06:07:57.808Z,24.6
2018-06-22T06:08:47.910Z,24.5
2018-06-22T06:09:37.377Z,24.5
2018-06-22T06:10:28.064Z,24.5
2018-06-22T06:11:19.119Z,24.6
2018-06-22T06:12:08.140Z,24.6
2018-06-22T06:12:58.215Z,24.6
2018-06-22T06:13:48.322Z,24.5
2018-06-22T06:14:36.768Z,24.6
2018-06-22T06:15:28.377Z,24.5
2018-06-22T06:16:18.405Z,24.6
2018-06-22T06:17:08.403Z,24.5
2018-06-22T06:17:57.440Z,24.6
2018-06-22T06:18:48.528Z,24.6
2018-06-22T06:19:37.322Z,24.6
2018-06-22T06:20:27.796Z,24.6
2018-06-22T06:21:18.296Z,24.5
2018-06-22T06:22:08.305Z,24.6
2018-06-22T06:22:59.023Z,24.6
2018-06-22T06:23:48.788Z,24.6
2018-06-22T06:24:38.553Z,24.6
2018-06-22T06:25:28.630Z,24.6
2018-06-22T06:26:18.400Z,24.6
2018-06-22T06:27:09.129Z,24.6
2018-06-22T06:27:59.712Z,24.6
2018-06-22T06:28:48.085Z,24.6
2018-06-22T06:29:39.430Z,24.6
2018-06-22T06:30:29.810Z,24.6
2018-06-22T06:31:19.327Z,24.6
2018-06-22T06:32:08.908Z,24.6
2018-06-22T06:32:58.951Z,24.6
2018-06-22T06:33:49.586Z,24.6
2018-06-22T06:34:39.145Z,24.6
2018-06-22T06:35:29.687Z,24.6
2018-06-22T06:36:19.752Z,24.6
2018-06-22T06:37:09.802Z,24.6
2018-06-22T06:37:59.674Z,24.6
2018-06-22T06:38:49.875Z,24.6
2018-06-22T06:39:40.325Z,24.6
2018-06-22T06:40:29.838Z,24.6
2018-06-22T06:41:19.801Z,24.6
2018-06-22T06:42:09.284Z,24.6
2018-06-22T06:42:59.668Z,24.6
2018-06-22T06:43:49.425Z,24.6
2018-06-22T06:44:40.930Z,24.6
2018-06-22T06:45:30.437Z,24.6
2018-06-22T06:46:20.251Z,24.6
2018-06-22T06:47:09.705Z,24.6
2018-06-22T06:48:01.003Z,24.6
2018-06-22T06:48:50.425Z,24.6
2018-06-22T06:49:42.341Z,24.6
2018-06-22T06:50:30.563Z,24.6
2018-06-22T06:51:21.262Z,24.6
2018-06-22T06:52:10.888Z,24.6
2018-06-22T06:53:00.965Z,24.6
2018-06-22T06:53:51.106Z,24.6
2018-06-22T06:54:40.566Z,24.6
2018-06-22T06:55:30.742Z,24.6
2018-06-22T06:56:21.605Z,24.6
2018-06-22T06:57:11.070Z,24.6
2018-06-22T06:58:01.451Z,24.6
2018-06-22T06:58:51.149Z,24.6
2018-06-22T06:59:42.106Z,24.6
2018-06-22T07:00:31.061Z,24.6
2018-06-22T07:01:21.940Z,24.6
2018-06-22T07:02:12.007Z,24.6
2018-06-22T07:03:01.478Z,24.6
2018-06-22T07:03:51.631Z,24.6
2018-06-22T07:04:41.950Z,24.6
2018-06-22T07:05:32.284Z,24.6
2018-06-22T07:06:22.176Z,24.6
2018-06-22T07:07:12.146Z,24.6
2018-06-22T07:08:02.493Z,24.6
2018-06-22T07:08:52.241Z,24.6
2018-06-22T07:09:42.865Z,24.6
2018-06-22T07:10:31.799Z,24.6
2018-06-22T07:11:22.472Z,24.6
2018-06-22T07:12:12.245Z,24.6
2018-06-22T07:13:02.935Z,24.6
2018-06-22T07:13:52.610Z,24.6
2018-06-22T07:14:42.759Z,24.6
2018-06-22T07:15:32.801Z,24.6
2018-06-22T07:16:22.012Z,24.6
2018-06-22T07:17:13.192Z,24.6
2018-06-22T07:18:03.551Z,24.6
2018-06-22T07:18:53.384Z,24.6
2018-06-22T07:19:42.864Z,24.6
2018-06-22T07:20:33.192Z,24.6
2018-06-22T07:21:23.785Z,24.6
2018-06-22T07:22:12.200Z,24.6
2018-06-22T07:23:03.067Z,24.6
2018-06-22T07:23:54.020Z,24.6
2018-06-22T07:24:43.832Z,24.6
2018-06-22T07:25:32.469Z,24.6
2018-06-22T07:26:22.724Z,24.6
2018-06-22T07:27:12.901Z,24.6
2018-06-22T07:28:03.426Z,24.6
2018-06-22T07:28:54.081Z,24.6
2018-06-22T07:29:43.887Z,24.6
2018-06-22T07:30:34.244Z,24.6
2018-06-22T07:31:24.348Z,24.6
2018-06-22T07:32:14.129Z,24.6
2018-06-22T07:33:03.284Z,24.6
2018-06-22T07:33:53.639Z,24.6
2018-06-22T07:34:44.253Z,24.6
2018-06-22T07:35:33.863Z,24.6
2018-06-22T07:36:24.182Z,24.6
2018-06-22T07:37:14.189Z,24.6
2018-06-22T07:38:04.233Z,24.6
2018-06-22T07:38:54.876Z,24.6
2018-06-22T07:39:43.221Z,24.6
2018-06-22T07:40:34.431Z,24.6
2018-06-22T07:41:23.726Z,24.6
2018-06-22T07:42:15.103Z,24.6
2018-06-22T07:43:04.656Z,24.6
2018-06-22T07:43:55.159Z,24.7
2018-06-22T07:44:45.057Z,24.6
2018-06-22T07:45:34.048Z,24.7
2018-06-22T07:46:24.898Z,24.7
2018-06-22T07:47:15.241Z,24.6
2018-06-22T07:48:05.250Z,24.7
2018-06-22T07:48:54.748Z,24.7
2018-06-22T07:49:44.521Z,24.7
2018-06-22T07:50:35.456Z,24.7
2018-06-22T07:51:24.671Z,24.7
2018-06-22T07:52:15.618Z,24.7
2018-06-22T07:53:05.705Z,24.7
2018-06-22T07:53:55.748Z,24.7
2018-06-22T07:54:45.755Z,24.7
2018-06-22T07:55:35.000Z,24.7
2018-06-22T07:56:26.196Z,24.7
2018-06-22T07:57:17.055Z,24.7
2018-06-22T07:58:06.233Z,24.7
2018-06-22T07:58:56.720Z,24.7
2018-06-22T07:59:46.468Z,24.7
2018-06-22T08:00:36.826Z,24.7
2018-06-22T08:01:26.889Z,24.7
2018-06-22T08:02:16.598Z,24.8
2018-06-22T08:03:06.189Z,24.7
2018-06-22T08:03:56.524Z,24.8
2018-06-22T08:04:47.079Z,24.8
2018-06-22T08:05:36.851Z,24.8
2018-06-22T08:06:27.814Z,24.8
2018-06-22T08:07:17.016Z,24.8
2018-06-22T08:08:07.086Z,24.8
2018-06-22T08:08:57.421Z,24.8
2018-06-22T08:09:47.018Z,24.8
2018-06-22T08:10:37.558Z,24.8
2018-06-22T08:11:27.054Z,24.8
2018-06-22T08:12:16.891Z,24.8
2018-06-22T08:13:07.480Z,24.8
2018-06-22T08:13:57.238Z,24.8
2018-06-22T08:14:47.377Z,24.8
2018-06-22T08:15:37.098Z,24.8
2018-06-22T08:16:27.414Z,24.8
2018-06-22T08:17:17.740Z,24.8
2018-06-22T08:18:07.861Z,24.8
2018-06-22T08:18:57.978Z,24.8
2018-06-22T08:19:47.704Z,24.8
2018-06-22T08:20:37.830Z,24.8
2018-06-22T08:21:27.622Z,24.8
2018-06-22T08:22:17.923Z,24.8
2018-06-22T08:23:08.067Z,24.8
2018-06-22T08:23:58.339Z,24.8
2018-06-22T08:24:47.434Z,24.8
2018-06-22T08:25:38.466Z,24.8
2018-06-22T08:26:27.553Z,24.8
2018-06-22T08:27:18.320Z,24.8
2018-06-22T08:28:08.708Z,24.8
2018-06-22T08:28:57.877Z,24.8
2018-06-22T08:29:47.661Z,24.8
2018-06-22T08:30:39.083Z,24.8
2018-06-22T08:31:28.609Z,24.8
2018-06-22T08:32:18.149Z,24.8
2018-06-22T08:33:08.763Z,24.8
2018-06-22T08:33:57.219Z,24.8
2018-06-22T08:34:49.225Z,24.8
2018-06-22T08:35:39.010Z,24.8
2018-06-22T08:36:29.053Z,24.8
2018-06-22T08:37:18.804Z,24.9
2018-06-22T08:38:08.931Z,24.9
2018-06-22T08:38:58.924Z,24.9
2018-06-22T08:39:49.307Z,24.8
2018-06-22T08:40:39.067Z,24.9
2018-06-22T08:41:30.150Z,24.9
2018-06-22T08:42:20.457Z,24.9
2018-06-22T08:43:09.282Z,24.9
2018-06-22T08:43:59.573Z,24.9
2018-06-22T08:44:49.941Z,24.9
2018-06-22T08:45:39.767Z,24.9
2018-06-22T08:46:29.274Z,24.9
2018-06-22T08:47:19.848Z,24.9
2018-06-22T08:48:10.589Z,24.9
2018-06-22T08:49:01.107Z,24.9
2018-06-22T08:49:49.330Z,24.9
2018-06-22T08:50:40.088Z,24.9
2018-06-22T08:51:29.955Z,24.9
2018-06-22T08:52:20.053Z,24.9
2018-06-22T08:53:09.476Z,24.9
2018-06-22T08:54:00.127Z,24.9
2018-06-22T08:54:50.421Z,24.9
2018-06-22T08:55:40.590Z,24.9
2018-06-22T08:56:30.919Z,24.9
2018-06-22T08:57:20.211Z,24.9
2018-06-22T08:58:10.494Z,24.9
2018-06-22T08:59:00.751Z,24.9
2018-06-22T08:59:49.858Z,24.9
2018-06-22T09:00:40.968Z,24.9
2018-06-22T09:01:31.924Z,24.9
2018-06-22T09:02:20.816Z,24.9
2018-06-22T09:03:11.216Z,24.9
2018-06-22T09:04:01.692Z,24.9
2018-06-22T09:04:51.324Z,24.9
2018-06-22T09:05:41.299Z,24.9
2018-06-22T09:06:31.301Z,24.9
2018-06-22T09:07:20.940Z,24.9
2018-06-22T09:08:11.779Z,24.9
2018-06-22T09:09:01.620Z,24.9
2018-06-22T09:09:50.612Z,24.9
2018-06-22T09:10:41.660Z,24.9
2018-06-22T09:11:31.740Z,24.9
2018-06-22T09:12:22.083Z,24.9
2018-06-22T09:13:12.196Z,24.9
2018-06-22T09:14:02.256Z,24.9
2018-06-22T09:14:51.440Z,24.9
2018-06-22T09:15:42.614Z,24.9
2018-06-22T09:16:31.621Z,24.9
2018-06-22T09:17:22.503Z,24.9
2018-06-22T09:18:12.032Z,24.9
2018-06-22T09:19:02.368Z,24.9
2018-06-22T09:19:52.472Z,24.9
2018-06-22T09:20:41.958Z,24.9
2018-06-22T09:21:31.980Z,24.9
2018-06-22T09:22:22.320Z,24.9
2018-06-22T09:23:12.415Z,24.9
2018-06-22T09:24:02.685Z,24.9
2018-06-22T09:24:51.651Z,24.9
2018-06-22T09:25:42.840Z,24.9
2018-06-22T09:26:32.682Z,24.9
2018-06-22T09:27:22.973Z,24.9
2018-06-22T09:28:13.057Z,24.9
2018-06-22T09:29:03.196Z,24.9
2018-06-22T09:29:53.221Z,24.9
2018-06-22T09:30:42.836Z,24.9
2018-06-22T09:31:33.713Z,24.9
2018-06-22T09:32:23.180Z,24.9
2018-06-22T09:33:13.892Z,24.9
2018-06-22T09:34:02.775Z,24.9
2018-06-22T09:34:53.991Z,24.9
2018-06-22T09:35:43.989Z,24.9
2018-06-22T09:36:34.071Z,24.9
2018-06-22T09:37:23.941Z,24.9
2018-06-22T09:38:12.597Z,24.9
2018-06-22T09:39:03.997Z,24.9
2018-06-22T09:39:54.592Z,24.9
2018-06-22T09:40:44.127Z,24.9
2018-06-22T09:41:34.471Z,24.9
2018-06-22T09:42:24.841Z,24.9
2018-06-22T09:43:13.991Z,24.9
2018-06-22T09:44:03.802Z,24.9
2018-06-22T09:44:54.265Z,25
2018-06-22T09:45:44.114Z,25
2018-06-22T09:46:33.319Z,24.9
2018-06-22T09:47:23.829Z,25
2018-06-22T09:48:13.068Z,25
2018-06-22T09:49:03.726Z,24.9
2018-06-22T09:49:53.776Z,24.9
2018-06-22T09:50:44.091Z,25
2018-06-22T09:51:33.421Z,25
2018-06-22T09:52:24.356Z,25
2018-06-22T09:53:15.113Z,25
2018-06-22T09:54:05.095Z,25
2018-06-22T09:54:55.193Z,25
2018-06-22T09:55:44.525Z,25
2018-06-22T09:56:35.077Z,25
2018-06-22T09:57:25.188Z,25
2018-06-22T09:58:14.955Z,25
2018-06-22T09:59:04.450Z,25
2018-06-22T09:59:54.870Z,25
2018-06-22T10:00:44.487Z,25
2018-06-22T10:01:35.233Z,25
2018-06-22T10:02:25.570Z,25
2018-06-22T10:03:15.638Z,25
2018-06-22T10:04:05.166Z,25
2018-06-22T10:04:56.544Z,25.1
2018-06-22T10:05:44.751Z,25
2018-06-22T10:06:35.854Z,25
2018-06-22T10:07:26.142Z,25
2018-06-22T10:08:16.395Z,25
2018-06-22T10:09:05.341Z,25
2018-06-22T10:09:56.090Z,25
2018-06-22T10:10:46.401Z,25
2018-06-22T10:11:37.538Z,25
2018-06-22T10:12:25.411Z,25
2018-06-22T10:13:16.599Z,25.1
2018-06-22T10:14:06.405Z,25.1
2018-06-22T10:14:56.528Z,25
2018-06-22T10:15:46.843Z,25.1
2018-06-22T10:16:36.631Z,25.1
2018-06-22T10:17:26.495Z,25
2018-06-22T10:18:16.725Z,25.1
2018-06-22T10:19:06.374Z,25.1
2018-06-22T10:19:56.607Z,25.1
2018-06-22T10:20:46.709Z,25.1
2018-06-22T10:21:37.051Z,25.1
2018-06-22T10:22:25.741Z,25.1
2018-06-22T10:23:16.330Z,25.1
2018-06-22T10:24:06.145Z,25.1
2018-06-22T10:24:56.443Z,25.1
2018-06-22T10:25:46.797Z,25.1
2018-06-22T10:26:37.512Z,25.1
2018-06-22T10:27:27.508Z,25.1
2018-06-22T10:28:17.643Z,25.1
2018-06-22T10:29:06.806Z,25.1
2018-06-22T10:29:57.728Z,25.1
2018-06-22T10:30:47.523Z,25.1
2018-06-22T10:31:37.603Z,25.1
2018-06-22T10:32:27.852Z,25.1
2018-06-22T10:33:17.084Z,25.1
2018-06-22T10:34:08.494Z,25.1
2018-06-22T10:34:57.196Z,25.1
2018-06-22T10:35:47.834Z,25.1
2018-06-22T10:36:37.897Z,25.1
2018-06-22T10:37:28.287Z,25.1
2018-06-22T10:38:18.043Z,25.1
2018-06-22T10:39:07.936Z,25.1
2018-06-22T10:39:58.439Z,25.1
2018-06-22T10:40:48.867Z,25.1
2018-06-22T10:41:38.305Z,25.1
2018-06-22T10:42:28.155Z,25.1
2018-06-22T10:43:18.182Z,25.1
2018-06-22T10:44:08.490Z,25.1
2018-06-22T10:44:58.864Z,25.1
2018-06-22T10:45:49.496Z,25.1
2018-06-22T10:46:39.007Z,25.1
2018-06-22T10:47:28.759Z,25.1
2018-06-22T10:48:18.832Z,25.1
2018-06-22T10:49:08.614Z,25.1
2018-06-22T10:49:58.422Z,25.1
2018-06-22T10:50:49.125Z,25.1
2018-06-22T10:51:40.916Z,25.1
2018-06-22T10:52:27.782Z,25.1
2018-06-22T10:53:19.260Z,25.1
2018-06-22T10:54:08.454Z,25.1
2018-06-22T10:54:59.847Z,25.1
2018-06-22T10:55:49.129Z,25.1
2018-06-22T10:56:39.516Z,25.1
2018-06-22T10:57:29.306Z,25.1
2018-06-22T10:58:18.608Z,25.1
2018-06-22T10:59:10.231Z,25.1
2018-06-22T11:00:00.971Z,25.1
2018-06-22T11:00:49.797Z,25.1
2018-06-22T11:01:38.820Z,25.1
2018-06-22T11:02:30.448Z,25.1
2018-06-22T11:03:20.725Z,25.1
2018-06-22T11:04:10.503Z,25.1
2018-06-22T11:05:00.102Z,25.1
2018-06-22T11:05:51.910Z,25.1
2018-06-22T11:06:41.239Z,25.1
2018-06-22T11:07:30.315Z,25.1
2018-06-22T11:08:21.117Z,25.1
2018-06-22T11:09:11.184Z,25.1
2018-06-22T11:10:00.306Z,25.1
2018-06-22T11:10:51.070Z,25.1
2018-06-22T11:11:40.555Z,25.1
2018-06-22T11:12:31.241Z,25.1
2018-06-22T11:13:20.966Z,25.1
2018-06-22T11:14:11.817Z,25.1
2018-06-22T11:15:02.051Z,25.1
2018-06-22T11:15:51.552Z,25.1
2018-06-22T11:16:41.828Z,25.1
2018-06-22T11:17:31.139Z,25.1
2018-06-22T11:18:22.577Z,25.1
2018-06-22T11:19:12.359Z,25.1
2018-06-22T11:20:00.993Z,25.1
2018-06-22T11:20:52.420Z,25.1
2018-06-22T11:21:41.112Z,25.1
2018-06-22T11:22:32.009Z,25.1
2018-06-22T11:23:21.204Z,25.1
2018-06-22T11:24:12.692Z,25.1
2018-06-22T11:25:01.974Z,25.1
2018-06-22T11:25:52.331Z,25.1
2018-06-22T11:26:42.057Z,25.1
2018-06-22T11:27:32.670Z,25.1
2018-06-22T11:28:22.495Z,25.1
2018-06-22T11:29:12.022Z,25.1
2018-06-22T11:30:02.377Z,25.1
2018-06-22T11:30:52.999Z,25.1
2018-06-22T11:31:41.583Z,25.1
2018-06-22T11:32:33.041Z,25.1
2018-06-22T11:33:23.161Z,25.1
2018-06-22T11:34:13.522Z,25.1
2018-06-22T11:35:02.365Z,25.1
2018-06-22T11:35:54.356Z,25.1
2018-06-22T11:36:42.834Z,25.1
2018-06-22T11:37:33.424Z,25.1
2018-06-22T11:38:23.823Z,25.1
2018-06-22T11:39:13.551Z,25.1
2018-06-22T11:40:03.592Z,25.1
2018-06-22T11:40:53.659Z,25.1
2018-06-22T11:41:43.802Z,25.1
2018-06-22T11:42:33.790Z,25.1
2018-06-22T11:43:23.031Z,25.1
2018-06-22T11:44:12.869Z,25.1
2018-06-22T11:45:04.045Z,25.1
2018-06-22T11:45:54.067Z,25.1
2018-06-22T11:46:43.874Z,25.1
2018-06-22T11:47:33.713Z,25.1
2018-06-22T11:48:24.521Z,25.1
2018-06-22T11:49:14.037Z,25.1
2018-06-22T11:50:04.704Z,25.1
2018-06-22T11:50:53.971Z,25.1
2018-06-22T11:51:43.781Z,25.1
2018-06-22T11:52:34.310Z,25.1
2018-06-22T11:53:23.776Z,25.1
2018-06-22T11:54:13.094Z,25.1
2018-06-22T11:55:04.798Z,25.1
2018-06-22T11:55:54.301Z,25.1
2018-06-22T11:56:44.395Z,25.1
2018-06-22T11:57:33.583Z,25.1
2018-06-22T11:58:24.730Z,25.1
2018-06-22T11:59:16.882Z,25.1
2018-06-22T12:00:05.463Z,25.1
2018-06-22T12:00:55.241Z,25.1
2018-06-22T12:01:45.645Z,25.1
2018-06-22T12:02:35.055Z,25.1
2018-06-22T12:03:25.389Z,25.1
2018-06-22T12:04:15.273Z,25.1
2018-06-22T12:05:05.536Z,25.1
2018-06-22T12:05:55.638Z,25.1
2018-06-22T12:06:45.995Z,25.1
2018-06-22T12:07:35.789Z,25.1
2018-06-22T12:08:25.796Z,25.1
2018-06-22T12:09:14.787Z,25.1
2018-06-22T12:10:05.402Z,25.1
2018-06-22T12:10:55.735Z,25.1
2018-06-22T12:11:45.898Z,25.1
2018-06-22T12:12:35.586Z,25.1
2018-06-22T12:13:25.683Z,25.1
2018-06-22T12:14:16.615Z,25.1
2018-06-22T12:15:06.188Z,25.1
2018-06-22T12:15:54.687Z,25.1
2018-06-22T12:16:45.322Z,25.1
2018-06-22T12:17:36.249Z,25.1
2018-06-22T12:18:26.596Z,25.1
2018-06-22T12:19:18.403Z,25.1
2018-06-22T12:20:06.516Z,25.1
2018-06-22T12:20:56.509Z,25.1
2018-06-22T12:21:46.304Z,25.1
2018-06-22T12:22:36.381Z,25.1
2018-06-22T12:23:26.274Z,25.1
2018-06-22T12:24:16.992Z,25.1
2018-06-22T12:25:07.221Z,25.1
2018-06-22T12:25:56.842Z,25.1
2018-06-22T12:26:46.994Z,25.1
2018-06-22T12:27:36.892Z,25.1
2018-06-22T12:28:27.345Z,25.1
2018-06-22T12:29:16.626Z,25.1
2018-06-22T12:30:07.895Z,25.1
2018-06-22T12:30:57.382Z,25.1
2018-06-22T12:31:46.807Z,25.1
2018-06-22T12:32:37.715Z,25.1
2018-06-22T12:33:27.052Z,25.1
2018-06-22T12:34:17.611Z,25.1
2018-06-22T12:35:07.372Z,25.1
2018-06-22T12:35:57.410Z,25.1
2018-06-22T12:36:47.732Z,25.1
2018-06-22T12:37:37.259Z,25.1
2018-06-22T12:38:27.909Z,25.1
2018-06-22T12:39:17.724Z,25.1
2018-06-22T12:40:08.050Z,25.1
2018-06-22T12:40:58.105Z,25.1
2018-06-22T12:41:48.411Z,25.1
2018-06-22T12:42:38.808Z,25.1
2018-06-22T12:43:27.756Z,25.1
2018-06-22T12:44:18.059Z,25.1
2018-06-22T12:45:10.045Z,25.1
2018-06-22T12:45:58.749Z,25.1
2018-06-22T12:46:48.326Z,25.1
2018-06-22T12:47:39.166Z,25.1
2018-06-22T12:48:28.125Z,25.1
2018-06-22T12:49:18.756Z,25.1
2018-06-22T12:50:09.138Z,25.1
2018-06-22T12:50:58.336Z,25.1
2018-06-22T12:51:48.680Z,25.1
2018-06-22T12:52:39.052Z,25.1
2018-06-22T12:53:28.566Z,25.1
2018-06-22T12:54:18.597Z,25.1
2018-06-22T12:55:09.315Z,25.1
2018-06-22T12:55:58.759Z,25.1
2018-06-22T12:56:48.876Z,25
2018-06-22T12:57:39.903Z,25.1
2018-06-22T12:58:29.434Z,25.1
2018-06-22T12:59:20.130Z,25.1
2018-06-22T13:00:08.502Z,25.1
2018-06-22T13:00:59.672Z,25.1
2018-06-22T13:01:49.749Z,25.1
2018-06-22T13:02:40.108Z,25
2018-06-22T13:03:29.090Z,25.1
2018-06-22T13:04:19.659Z,25.1
2018-06-22T13:05:09.742Z,25.1
2018-06-22T13:05:59.008Z,25.1
2018-06-22T13:06:50.068Z,25.1
2018-06-22T13:07:39.835Z,25.1
2018-06-22T13:08:29.090Z,25.1
2018-06-22T13:09:21.015Z,25.1
2018-06-22T13:10:10.528Z,25
2018-06-22T13:11:00.812Z,25.1
2018-06-22T13:11:51.027Z,25.1
2018-06-22T13:12:40.893Z,25.1
2018-06-22T13:13:30.828Z,25.1
2018-06-22T13:14:20.051Z,25.1
2018-06-22T13:15:10.691Z,25.1
2018-06-22T13:16:00.451Z,25.1
2018-06-22T13:16:50.590Z,25.1
2018-06-22T13:17:40.858Z,25.1
2018-06-22T13:18:31.166Z,25.1
2018-06-22T13:19:21.283Z,25.1
2018-06-22T13:20:10.543Z,25.1
2018-06-22T13:21:01.401Z,25.1
2018-06-22T13:21:51.755Z,25.1
2018-06-22T13:22:40.682Z,25.1
2018-06-22T13:23:31.560Z,25.1
2018-06-22T13:24:21.622Z,25.1
2018-06-22T13:25:11.763Z,25.1
2018-06-22T13:26:02.208Z,25.1
2018-06-22T13:26:51.975Z,25.1
2018-06-22T13:27:41.912Z,25.1
2018-06-22T13:28:31.656Z,25.1
2018-06-22T13:29:22.261Z,25
2018-06-22T13:30:12.091Z,25.1
2018-06-22T13:31:02.305Z,25
2018-06-22T13:31:52.525Z,25.1
2018-06-22T13:32:41.734Z,25
2018-06-22T13:33:32.112Z,25
2018-06-22T13:34:22.414Z,25.1
2018-06-22T13:35:12.459Z,25.1
2018-06-22T13:36:02.798Z,25
2018-06-22T13:36:52.369Z,25
2018-06-22T13:37:42.118Z,25
2018-06-22T13:38:32.759Z,25
2018-06-22T13:39:22.298Z,25
2018-06-22T13:40:12.591Z,25
2018-06-22T13:41:02.679Z,25
2018-06-22T13:41:52.479Z,25
2018-06-22T13:42:43.346Z,25
2018-06-22T13:43:31.798Z,25
2018-06-22T13:44:23.189Z,25
2018-06-22T13:45:13.527Z,25.1
2018-06-22T13:46:03.634Z,25
2018-06-22T13:46:52.048Z,25
2018-06-22T13:47:42.949Z,25
2018-06-22T13:48:33.779Z,25
2018-06-22T13:49:23.605Z,25
2018-06-22T13:50:14.143Z,25
2018-06-22T13:51:02.590Z,25
2018-06-22T13:51:53.282Z,25
2018-06-22T13:52:44.182Z,25
2018-06-22T13:53:34.217Z,25
2018-06-22T13:54:23.563Z,25
2018-06-22T13:55:13.565Z,25
2018-06-22T13:56:03.822Z,25
2018-06-22T13:56:55.685Z,25
2018-06-22T13:57:44.822Z,25
2018-06-22T13:58:34.021Z,25
2018-06-22T13:59:24.072Z,25
2018-06-22T14:00:14.212Z,25
2018-06-22T14:01:04.020Z,25
2018-06-22T14:01:54.928Z,25
2018-06-22T14:02:44.355Z,25
2018-06-22T14:03:34.126Z,25
2018-06-22T14:04:25.130Z,24.9
2018-06-22T14:05:13.719Z,25
2018-06-22T14:06:04.102Z,25
2018-06-22T14:06:54.687Z,25
2018-06-22T14:07:44.219Z,25
2018-06-22T14:08:34.461Z,25
2018-06-22T14:09:26.930Z,25
2018-06-22T14:10:14.611Z,25
2018-06-22T14:11:05.020Z,24.9
2018-06-22T14:11:55.085Z,25
2018-06-22T14:12:44.986Z,25
2018-06-22T14:13:34.878Z,25
2018-06-22T14:14:25.504Z,25
2018-06-22T14:15:15.316Z,25
2018-06-22T14:16:05.637Z,24.9
2018-06-22T14:16:56.001Z,25
2018-06-22T14:17:46.099Z,24.9
2018-06-22T14:18:35.580Z,24.9
2018-06-22T14:19:25.941Z,24.9
2018-06-22T14:20:17.647Z,25
2018-06-22T14:21:06.087Z,24.9
2018-06-22T14:21:55.347Z,24.9
2018-06-22T14:22:45.327Z,24.9
2018-06-22T14:23:35.421Z,24.9
2018-06-22T14:24:26.027Z,24.9
2018-06-22T14:25:15.814Z,24.9
2018-06-22T14:26:05.850Z,24.9
2018-06-22T14:26:56.195Z,24.9
2018-06-22T14:27:45.991Z,24.9
2018-06-22T14:28:36.612Z,24.9
2018-06-22T14:29:26.754Z,24.9
2018-06-22T14:30:16.715Z,24.9
2018-06-22T14:31:06.995Z,25
2018-06-22T14:31:56.620Z,24.9
2018-06-22T14:32:46.664Z,25
2018-06-22T14:33:36.757Z,24.9
2018-06-22T14:34:26.781Z,24.9
2018-06-22T14:35:16.671Z,24.9
2018-06-22T14:36:07.235Z,24.9
2018-06-22T14:36:57.581Z,24.9
2018-06-22T14:37:46.520Z,24.9
2018-06-22T14:38:37.166Z,24.9
2018-06-22T14:39:27.008Z,24.9
2018-06-22T14:40:17.401Z,24.9
2018-06-22T14:41:07.123Z,24.9
2018-06-22T14:41:56.972Z,24.9
2018-06-22T14:42:46.742Z,25
2018-06-22T14:43:37.950Z,24.9
2018-06-22T14:44:27.389Z,24.9
2018-06-22T14:45:17.168Z,24.9
2018-06-22T14:46:06.955Z,24.9
2018-06-22T14:46:57.366Z,24.9
2018-06-22T14:47:47.422Z,24.9
2018-06-22T14:48:37.442Z,24.9